Time;durP1;ratioP1;P1;durP2;ratioP2;P2;SDS_P1;SDS_P2;PMS_P1;PMS_P2;Temp;Humidity;BMP_temperature;BMP_pressure;BME280_temperature;BME280_humidity;BME280_pressure;Samples;Min_cycle;Max_cycle;Signal;HPM_P1;HPM_P2
2022/05/26 00:01:16;;;;;;;1.23;0.60;;;;;;;20.12;39.84;99311.06;5091908;28;20401;-48
2022/05/26 00:03:45;;;;;;;10.13;1.05;;;;;;;19.99;40.53;99310.63;5090954;28;20393;-49
2022/05/26 00:06:17;;;;;;;4.13;0.93;;;;;;;19.95;40.43;99311.09;5092251;28;20504;-49
2022/05/26 00:08:44;;;;;;;5.00;0.82;;;;;;;19.95;40.62;99311.09;5092188;28;20024;-48
2022/05/26 00:11:17;;;;;;;7.25;2.60;;;;;;;19.97;40.60;99313.53;5090709;28;20390;-49
2022/05/26 00:13:43;;;;;;;4.88;1.30;;;;;;;19.87;40.80;99311.53;5090888;28;20053;-48
2022/05/26 00:16:09;;;;;;;10.60;1.55;;;;;;;19.93;40.94;99312.41;5092129;28;20032;-49
2022/05/26 00:18:35;;;;;;;4.20;0.82;;;;;;;19.98;40.78;99309.00;5092091;28;20097;-48
2022/05/26 00:21:02;;;;;;;8.32;1.40;;;;;;;19.91;41.19;99306.53;5090759;28;20516;-48
2022/05/26 00:23:27;;;;;;;2.83;0.63;;;;;;;19.91;41.02;99309.97;5092031;28;20504;-48
2022/05/26 00:25:53;;;;;;;19.67;1.73;;;;;;;19.94;40.93;99306.00;5090713;28;20020;-48
2022/05/26 00:28:19;;;;;;;6.15;1.00;;;;;;;20.01;40.76;99303.97;5090625;28;20516;-49
2022/05/26 00:30:45;;;;;;;2.20;0.70;;;;;;;20.13;40.77;99304.66;5091596;28;20040;-48
2022/05/26 00:33:13;;;;;;;7.70;1.17;;;;;;;20.38;40.37;99299.88;5090740;28;20051;-48
2022/05/26 00:35:40;;;;;;;3.60;0.82;;;;;;;20.62;39.81;99300.44;5091902;28;20016;-49
2022/05/26 00:38:12;;;;;;;4.63;1.13;;;;;;;20.83;39.51;99302.28;5091974;28;20073;-48
2022/05/26 00:40:41;;;;;;;3.30;1.00;;;;;;;21.09;39.03;99287.28;5091841;28;20024;-49
2022/05/26 00:43:08;;;;;;;25.17;10.63;;;;;;;21.07;38.84;99294.75;5091877;28;20024;-48
2022/05/26 00:45:43;;;;;;;7.28;2.20;;;;;;;20.88;39.21;99302.31;5090502;28;20508;-48
2022/05/26 00:48:17;;;;;;;7.68;4.18;;;;;;;20.63;39.60;99308.19;5091834;28;20107;-48
2022/05/26 00:50:51;;;;;;;6.87;1.67;;;;;;;20.48;39.76;99303.50;5091854;28;20540;-48
2022/05/26 00:53:31;;;;;;;5.60;2.83;;;;;;;20.32;40.36;99309.69;5091819;28;20024;-48
2022/05/26 00:56:09;;;;;;;13.75;2.95;;;;;;;20.30;40.22;99309.13;5090472;28;20636;-49
2022/05/26 00:58:40;;;;;;;7.75;1.77;;;;;;;20.24;40.14;99313.63;5091790;28;20103;-49
2022/05/26 01:01:06;;;;;;;8.88;1.90;;;;;;;20.20;40.33;99311.66;5091750;28;20025;-49
2022/05/26 01:03:55;;;;;;;10.65;1.65;;;;;;;20.15;40.58;99309.75;5090325;28;20093;-49
2022/05/26 01:06:34;;;;;;;7.35;1.17;;;;;;;20.14;40.60;99300.97;5091632;28;20158;-48
2022/05/26 01:09:03;;;;;;;10.15;1.95;;;;;;;20.13;40.50;99299.34;5091704;28;20024;-48
2022/05/26 01:11:35;;;;;;;6.90;0.98;;;;;;;20.14;40.52;99298.31;5091474;28;20020;-49
2022/05/26 01:14:25;;;;;;;3.58;0.88;;;;;;;20.11;40.70;99292.66;5094656;28;20032;-49
2022/05/26 01:17:00;;;;;;;10.25;1.75;;;;;;;20.11;40.52;99298.78;5086498;28;20127;-49
2022/05/26 01:19:45;;;;;;;7.47;0.93;;;;;;;20.30;40.31;99299.28;5095460;28;20081;-48
2022/05/26 01:22:48;;;;;;;6.53;0.90;;;;;;;20.40;40.00;99295.91;5095261;28;20409;-47
2022/05/26 01:25:33;;;;;;;4.85;1.08;;;;;;;20.32;40.10;99293.69;5093914;28;20400;-47
2022/05/26 01:28:27;;;;;;;5.07;1.10;;;;;;;20.36;40.20;99289.47;5095244;28;20498;-46
2022/05/26 01:31:17;;;;;;;7.63;1.05;;;;;;;20.53;39.80;99290.19;5094899;28;20044;-47
2022/05/26 01:33:57;;;;;;;17.42;1.52;;;;;;;20.48;39.80;99286.66;5095182;28;20032;-47
2022/05/26 01:36:32;;;;;;;2.15;0.57;;;;;;;20.40;40.03;99290.56;5093703;28;20027;-47
2022/05/26 01:39:19;;;;;;;3.88;0.70;;;;;;;20.42;39.91;99285.00;5095103;28;20028;-46
2022/05/26 01:42:17;;;;;;;3.00;0.80;;;;;;;20.10;40.38;99291.84;5094999;28;20032;-46
2022/05/26 01:45:17;;;;;;;3.83;0.90;;;;;;;20.13;40.52;99280.69;5093646;28;20115;-47
2022/05/26 01:48:00;;;;;;;8.95;1.17;;;;;;;20.17;40.35;99293.53;5052180;28;20044;-46
2022/05/26 01:50:38;;;;;;;23.15;1.95;;;;;;;20.16;40.46;99292.69;5052517;28;20461;-47
2022/05/26 01:53:25;;;;;;;24.98;1.85;;;;;;;20.03;40.73;99295.75;5052389;28;20032;-47
2022/05/26 01:56:05;;;;;;;6.70;0.80;;;;;;;19.91;41.06;99301.19;5052220;28;20094;-47
2022/05/26 01:58:37;;;;;;;8.63;1.13;;;;;;;19.72;41.18;99295.34;5052209;28;20037;-47
2022/05/26 02:01:09;;;;;;;4.38;0.75;;;;;;;19.57;41.47;99303.88;5052156;28;20064;-47
2022/05/26 02:03:39;;;;;;;3.42;0.60;;;;;;;19.43;41.88;99298.06;5052095;28;20029;-47
2022/05/26 02:06:24;;;;;;;15.30;2.05;;;;;;;19.42;42.05;99301.81;5051939;28;20585;-48
2022/05/26 02:08:57;;;;;;;4.88;0.75;;;;;;;19.46;41.93;99289.63;5052138;28;20106;-47
2022/05/26 02:11:24;;;;;;;7.57;1.08;;;;;;;19.40;42.08;99295.91;5051781;28;20043;-47
2022/05/26 02:14:07;;;;;;;6.07;1.17;;;;;;;19.33;42.40;99289.94;5051930;28;20104;-47
2022/05/26 02:16:57;;;;;;;4.72;1.00;;;;;;;19.25;42.63;99298.34;5051854;28;20124;-47
2022/05/26 02:19:36;;;;;;;5.57;0.80;;;;;;;19.28;42.53;99292.53;5035087;28;20053;-47
2022/05/26 02:22:19;;;;;;;5.35;1.48;;;;;;;19.19;42.46;99291.31;5051812;28;20037;-47
2022/05/26 02:24:55;;;;;;;7.55;1.00;;;;;;;19.14;42.87;99295.50;5078290;28;20556;-47
2022/05/26 02:27:21;;;;;;;6.75;0.80;;;;;;;19.10;42.93;99302.38;5092818;28;20501;-47
2022/05/26 02:29:55;;;;;;;5.35;0.70;;;;;;;18.99;42.97;99297.91;5092533;28;20020;-46
2022/05/26 02:32:26;;;;;;;13.40;1.37;;;;;;;18.94;43.33;99301.28;5094075;28;20480;-47
2022/05/26 02:34:54;;;;;;;8.88;1.17;;;;;;;19.19;43.17;99297.44;5094068;28;20051;-46
2022/05/26 02:37:22;;;;;;;20.65;2.00;;;;;;;19.26;42.88;99295.44;5093874;28;20024;-47
2022/05/26 02:39:48;;;;;;;10.48;1.52;;;;;;;19.21;42.67;99294.53;5093835;28;20101;-47
2022/05/26 02:42:14;;;;;;;7.30;1.02;;;;;;;19.06;43.01;99293.25;5093817;28;20036;-47
2022/05/26 02:44:41;;;;;;;6.85;0.80;;;;;;;18.95;43.18;99300.25;5093820;28;20099;-47
2022/05/26 02:47:25;;;;;;;13.45;1.60;;;;;;;18.89;43.46;99295.88;5092462;28;20103;-46
2022/05/26 02:50:02;;;;;;;3.20;0.90;;;;;;;18.82;43.46;99297.91;5093684;28;20024;-47
2022/05/26 02:52:56;;;;;;;4.15;1.45;;;;;;;18.82;43.63;99299.75;5092341;28;20494;-46
2022/05/26 02:55:59;;;;;;;15.55;2.50;;;;;;;18.92;43.44;99300.72;5092241;28;20097;-47
2022/05/26 02:58:34;;;;;;;6.15;0.88;;;;;;;18.93;43.27;99302.34;5092226;28;20444;-46
2022/05/26 03:01:25;;;;;;;7.82;1.35;;;;;;;18.91;43.50;99306.28;5092213;28;20047;-46
2022/05/26 03:04:19;;;;;;;4.45;1.00;;;;;;;18.90;43.46;99300.16;5082031;28;20040;-47
2022/05/26 03:07:02;;;;;;;7.22;1.27;;;;;;;18.85;43.41;99307.25;5093346;28;20397;-47
2022/05/26 03:09:34;;;;;;;5.10;1.05;;;;;;;18.86;43.53;99299.03;5093361;28;20051;-47
2022/05/26 03:12:00;;;;;;;18.42;2.40;;;;;;;18.91;43.19;99304.44;5093209;28;20447;-46
2022/05/26 03:14:26;;;;;;;15.52;1.63;;;;;;;18.95;43.17;99296.78;5091899;28;20069;-47
2022/05/26 03:16:52;;;;;;;6.80;1.30;;;;;;;18.99;43.38;99302.44;5093379;28;20468;-47
2022/05/26 03:19:19;;;;;;;1.77;0.80;;;;;;;18.95;43.25;99305.59;5091807;28;20063;-47
2022/05/26 03:21:45;;;;;;;5.97;1.25;;;;;;;18.90;43.29;99308.13;5093035;28;20042;-46
2022/05/26 03:24:11;;;;;;;8.93;0.80;;;;;;;18.92;43.25;99303.38;5092982;28;20044;-47
2022/05/26 03:26:38;;;;;;;8.80;1.10;;;;;;;18.97;43.40;99305.31;5091648;28;20023;-46
2022/05/26 03:29:05;;;;;;;19.13;2.50;;;;;;;19.03;43.28;99304.34;5092908;28;20028;-46
2022/05/26 03:31:31;;;;;;;9.20;1.10;;;;;;;19.13;43.11;99298.41;5091112;28;20047;-47
2022/05/26 03:42:13;;;;;;;5.65;1.40;;;;;;;18.98;43.11;99317.59;5091968;28;20031;-47
2022/05/26 03:44:39;;;;;;;8.48;1.73;;;;;;;18.89;43.59;99327.00;5092680;28;20024;-46
2022/05/26 03:47:05;;;;;;;6.28;1.35;;;;;;;18.81;43.47;99328.19;5092579;28;20055;-47
2022/05/26 03:49:31;;;;;;;5.38;1.15;;;;;;;18.67;43.66;99335.63;5092478;28;20074;-47
2022/05/26 03:51:57;;;;;;;3.67;0.73;;;;;;;18.50;43.96;99332.91;5091137;28;20409;-46
2022/05/26 03:54:24;;;;;;;7.88;1.00;;;;;;;18.39;44.14;99325.78;5092960;28;20028;-47
2022/05/26 03:56:50;;;;;;;10.50;2.28;;;;;;;18.37;44.76;99327.84;5092440;28;20028;-46
2022/05/26 03:59:15;;;;;;;14.55;2.83;;;;;;;18.44;44.80;99325.88;5092416;28;20393;-47
2022/05/26 04:01:41;;;;;;;22.95;2.10;;;;;;;18.53;44.50;99324.47;5092371;28;20099;-46
2022/05/26 04:04:07;;;;;;;18.52;2.30;;;;;;;18.70;44.31;99331.69;5092329;28;20024;-47
2022/05/26 04:06:33;;;;;;;5.97;0.77;;;;;;;18.81;44.04;99330.03;5092266;28;20020;-46
2022/05/26 04:08:59;;;;;;;6.18;0.93;;;;;;;18.87;43.69;99334.41;5092182;28;20027;-46
2022/05/26 04:11:25;;;;;;;15.40;1.60;;;;;;;18.89;43.57;99334.97;5092103;28;20072;-47
2022/05/26 04:13:52;;;;;;;8.00;1.27;;;;;;;18.87;43.48;99337.84;5092221;28;20024;-47
2022/05/26 04:16:20;;;;;;;14.80;1.73;;;;;;;18.84;43.44;99338.34;5092130;28;20024;-46
2022/05/26 04:18:45;;;;;;;19.10;2.45;;;;;;;18.73;43.98;99339.16;5092114;28;20023;-47
2022/05/26 04:21:13;;;;;;;12.63;1.65;;;;;;;18.84;43.57;99338.34;5092306;28;20051;-47
2022/05/26 04:23:39;;;;;;;6.13;0.80;;;;;;;18.96;43.42;99341.75;5092117;28;20401;-47
2022/05/26 04:26:08;;;;;;;21.45;2.50;;;;;;;18.98;43.48;99341.53;5090694;28;20550;-47
2022/05/26 04:28:34;;;;;;;5.93;1.08;;;;;;;19.10;43.30;99350.25;5091988;28;20031;-47
2022/05/26 04:31:00;;;;;;;10.68;1.40;;;;;;;19.59;42.79;99351.56;5090305;28;20575;-47
2022/05/26 04:33:26;;;;;;;18.38;2.35;;;;;;;20.33;41.25;99348.63;5091917;28;20043;-47
2022/05/26 04:35:52;;;;;;;6.55;1.02;;;;;;;21.18;39.55;99343.66;5090598;28;20024;-47
2022/05/26 04:38:19;;;;;;;12.88;1.85;;;;;;;21.92;38.09;99336.75;5090530;28;20098;-46
2022/05/26 04:40:46;;;;;;;7.18;1.08;;;;;;;22.39;36.76;99341.28;5090531;28;20124;-47
2022/05/26 04:43:13;;;;;;;14.45;1.88;;;;;;;22.60;36.36;99344.03;5090525;28;20462;-47
2022/05/26 04:45:39;;;;;;;4.55;1.00;;;;;;;22.67;36.60;99347.25;5091791;28;20117;-47
2022/05/26 04:48:05;;;;;;;9.32;5.93;;;;;;;22.93;36.27;99350.78;5095436;28;20111;-47
2022/05/26 04:50:31;;;;;;;9.82;2.75;;;;;;;23.12;35.80;99357.28;5095928;28;20028;-47
2022/05/26 04:52:57;;;;;;;18.95;3.10;;;;;;;23.42;35.84;99365.59;5096226;28;20024;-47
2022/05/26 04:55:23;;;;;;;9.90;2.40;;;;;;;23.83;35.39;99360.22;5095873;28;20543;-47
2022/05/26 04:57:52;;;;;;;4.72;1.30;;;;;;;24.19;34.27;99363.63;5095840;28;20123;-47
2022/05/26 05:00:18;;;;;;;7.05;1.30;;;;;;;24.48;33.52;99357.59;5095802;28;20098;-47
2022/05/26 05:02:44;;;;;;;6.30;2.15;;;;;;;24.78;32.89;99355.88;5094436;28;20468;-47
2022/05/26 05:05:11;;;;;;;4.88;2.35;;;;;;;25.22;32.20;99360.44;5094317;28;20048;-47
2022/05/26 05:07:37;;;;;;;8.50;2.22;;;;;;;25.77;31.25;99355.63;5095642;28;20565;-48
2022/05/26 05:10:04;;;;;;;4.65;1.48;;;;;;;26.16;30.45;99360.09;5094194;28;20051;-47
2022/05/26 05:12:30;;;;;;;9.43;1.65;;;;;;;26.34;29.87;99353.16;5095466;28;20020;-49
2022/05/26 05:14:56;;;;;;;8.05;2.03;;;;;;;26.69;29.79;99356.50;5095525;28;20028;-48
2022/05/26 05:17:25;;;;;;;5.78;2.30;;;;;;;26.64;29.48;99353.88;5094189;28;20020;-49
2022/05/26 05:19:51;;;;;;;4.53;1.20;;;;;;;26.89;29.58;99358.09;5095503;28;20024;-48
2022/05/26 05:22:31;;;;;;;6.03;1.50;;;;;;;27.32;28.82;99360.69;5095374;28;20024;-49
2022/05/26 05:25:18;;;;;;;4.40;1.55;;;;;;;28.08;27.96;99358.53;5095685;28;20043;-49
2022/05/26 05:27:58;;;;;;;4.32;1.40;;;;;;;28.36;27.77;99361.25;5095368;28;20028;-49
2022/05/26 05:30:32;;;;;;;4.30;0.90;;;;;;;28.80;26.82;99361.69;5094909;28;20048;-49
2022/05/26 05:33:07;;;;;;;6.95;1.17;;;;;;;29.45;25.96;99363.13;5095301;28;20016;-50
2022/05/26 05:35:36;;;;;;;;;;;;;;;29.97;25.41;99370.75;5095547;28;20020;-49
2022/05/26 05:38:02;;;;;;;6.43;1.33;;;;;;;30.09;24.97;99365.53;5095106;28;20292;-49
2022/05/26 05:40:28;;;;;;;15.25;1.58;;;;;;;30.52;24.52;99366.78;5095059;28;20505;-50
2022/05/26 05:42:54;;;;;;;36.67;6.38;;;;;;;30.71;24.31;99370.00;5095095;28;20036;-50
2022/05/26 05:45:19;;;;;;;15.43;2.65;;;;;;;30.91;24.03;99359.66;5094968;28;20021;-50
2022/05/26 05:47:45;;;;;;;13.50;1.67;;;;;;;30.97;23.88;99372.75;5094964;28;20024;-49
2022/05/26 05:50:11;;;;;;;13.38;1.45;;;;;;;31.23;23.66;99364.59;5094849;28;20031;-49
2022/05/26 05:52:37;;;;;;;12.82;1.63;;;;;;;31.44;23.28;99370.16;5094859;28;20024;-49
2022/05/26 05:55:04;;;;;;;10.32;1.40;;;;;;;31.80;22.79;99368.94;5094737;28;20085;-49
2022/05/26 05:57:32;;;;;;;3.13;1.48;;;;;;;32.25;22.29;99375.78;5094758;28;20078;-48
2022/05/26 05:59:58;;;;;;;8.80;2.20;;;;;;;32.31;22.07;99388.03;5093964;28;20073;-49
2022/05/26 06:02:24;;;;;;;10.30;1.65;;;;;;;32.34;22.12;99389.31;5094593;28;20393;-49
2022/05/26 06:04:50;;;;;;;6.07;1.02;;;;;;;32.48;22.21;99380.91;5093285;28;20063;-49
2022/05/26 06:07:21;;;;;;;5.43;1.02;;;;;;;32.35;22.11;99385.47;5094561;28;20024;-49
2022/05/26 06:09:48;;;;;;;7.45;1.33;;;;;;;32.68;21.54;99388.34;5093240;28;20032;-50
2022/05/26 06:12:14;;;;;;;10.38;1.55;;;;;;;32.88;21.84;99386.75;5093035;28;20028;-49
2022/05/26 06:14:44;;;;;;;8.02;1.15;;;;;;;33.51;20.70;99394.03;5094438;28;20016;-50
2022/05/26 06:17:13;;;;;;;5.57;1.10;;;;;;;33.80;20.54;99393.88;5094337;28;20024;-49
2022/05/26 06:19:40;;;;;;;11.77;1.27;;;;;;;34.25;20.22;99403.13;5092995;28;20541;-50
2022/05/26 06:22:15;;;;;;;4.25;1.15;;;;;;;34.55;19.97;99409.13;5092920;28;20104;-49
2022/05/26 06:24:41;;;;;;;6.00;1.05;;;;;;;34.78;19.51;99409.44;5094323;28;20028;-49
2022/05/26 06:29:57;;;;;;;10.48;1.52;;;;;;;35.35;19.04;99404.03;5082247;28;20040;-49
2022/05/26 06:37:54;;;;;;;5.93;1.02;;;;;;;35.77;18.46;99403.56;5093987;28;20042;-49
2022/05/26 06:40:20;;;;;;;4.63;1.05;;;;;;;35.78;18.43;99411.41;5094119;28;20032;-49
2022/05/26 06:42:48;;;;;;;11.55;1.30;;;;;;;35.91;18.32;99414.84;5093899;28;20565;-49
2022/05/26 06:45:17;;;;;;;9.38;1.98;;;;;;;35.76;18.45;99408.25;5092435;28;20508;-49
2022/05/26 06:47:44;;;;;;;7.20;1.40;;;;;;;35.74;17.81;99407.81;5093788;28;20024;-48
2022/05/26 06:50:11;;;;;;;7.80;1.23;;;;;;;35.59;18.39;99414.00;5093572;28;20027;-48
2022/05/26 06:52:37;;;;;;;3.78;1.10;;;;;;;35.52;18.69;99411.91;5092303;28;20054;-49
2022/05/26 06:55:05;;;;;;;7.70;1.50;;;;;;;35.78;18.69;99418.84;5093597;28;20020;-47
2022/05/26 06:57:34;;;;;;;11.32;1.58;;;;;;;35.97;18.16;99416.16;5092414;28;20493;-47
2022/05/26 07:00:07;;;;;;;11.35;1.42;;;;;;;36.25;18.17;99426.22;5092236;28;20031;-48
2022/05/26 07:02:32;;;;;;;5.60;1.25;;;;;;;36.60;17.57;99419.97;5092148;28;20515;-49
2022/05/26 07:04:58;;;;;;;7.78;1.63;;;;;;;36.82;17.62;99424.00;5093413;28;20058;-48
2022/05/26 07:07:25;;;;;;;2.78;1.20;;;;;;;36.97;17.44;99419.63;5093323;28;20020;-48
2022/05/26 07:09:55;;;;;;;4.07;1.25;;;;;;;37.20;16.83;99421.66;5092592;28;20103;-49
2022/05/26 07:12:23;;;;;;;8.50;2.78;;;;;;;37.19;16.96;99409.94;5091549;28;20090;-49
2022/05/26 07:14:48;;;;;;;9.68;2.85;;;;;;;37.20;17.33;99414.22;5093239;28;20031;-50
2022/05/26 07:17:14;;;;;;;4.53;1.73;;;;;;;37.37;16.86;99413.00;5093151;28;20374;-48
2022/05/26 07:19:41;;;;;;;4.60;1.50;;;;;;;37.20;17.33;99416.19;5093149;28;20028;-48
2022/05/26 07:22:08;;;;;;;5.07;1.70;;;;;;;37.10;17.30;99423.00;5093019;28;20024;-47
2022/05/26 07:24:34;;;;;;;8.77;1.80;;;;;;;36.78;17.60;99423.94;5092972;28;20032;-48
2022/05/26 07:27:01;;;;;;;4.63;1.50;;;;;;;36.47;17.97;99426.72;5092977;28;20021;-49
2022/05/26 07:29:27;;;;;;;4.57;1.33;;;;;;;35.79;18.19;99428.59;5092939;28;20027;-49
2022/05/26 07:31:54;;;;;;;3.72;0.95;;;;;;;35.21;18.82;99420.78;5092609;28;20050;-48
2022/05/26 07:34:20;;;;;;;2.60;0.98;;;;;;;34.49;19.34;99426.03;5092897;28;20026;-47
2022/05/26 07:42:19;;;;;;;;;;;;;;;34.48;19.91;99413.56;5093405;28;20092;-48
2022/05/26 07:44:48;;;;;;;3.72;1.00;;;;;;;34.68;19.53;99409.91;5092660;28;19908;-47
2022/05/26 07:47:15;;;;;;;5.90;1.00;;;;;;;34.83;19.25;99422.03;5091356;28;20024;-48
2022/05/26 07:49:47;;;;;;;4.22;0.80;;;;;;;35.12;19.21;99429.09;5092553;28;20506;-48
2022/05/26 07:52:15;;;;;;;4.47;0.90;;;;;;;35.31;18.78;99424.97;5092450;28;20408;-47
2022/05/26 07:54:41;;;;;;;4.78;1.10;;;;;;;35.59;18.25;99408.56;5092768;28;20031;-48
2022/05/26 07:57:15;;;;;;;3.42;0.95;;;;;;;36.21;17.50;99414.44;5092421;28;20020;-48
2022/05/26 07:59:41;;;;;;;8.32;2.22;;;;;;;36.40;17.49;99413.69;5092505;28;20036;-47
2022/05/26 08:02:06;;;;;;;2.97;0.80;;;;;;;36.66;16.98;99415.84;5092355;28;20020;-46
2022/05/26 08:04:32;;;;;;;8.68;1.20;;;;;;;36.57;17.26;99424.22;5092334;28;20020;-47
2022/05/26 08:06:58;;;;;;;3.78;0.68;;;;;;;36.54;17.03;99419.50;5092369;28;20809;-47
2022/05/26 08:09:24;;;;;;;7.10;1.20;;;;;;;36.28;17.44;99438.38;5092219;28;20039;-46
2022/05/26 08:11:50;;;;;;;6.22;1.35;;;;;;;36.09;17.41;99433.63;5092146;28;20020;-47
2022/05/26 08:14:16;;;;;;;9.15;1.40;;;;;;;36.35;16.98;99436.63;5092196;28;20078;-47
2022/05/26 08:16:42;;;;;;;5.13;1.33;;;;;;;36.73;16.89;99428.91;5092137;28;20028;-48
2022/05/26 08:19:08;;;;;;;6.57;1.33;;;;;;;36.97;16.69;99433.31;5092128;28;20024;-48
2022/05/26 08:21:36;;;;;;;4.65;1.00;;;;;;;37.63;16.22;99420.53;5091735;28;20035;-48
2022/05/26 08:24:03;;;;;;;4.47;1.00;;;;;;;38.00;15.61;99427.41;5091986;28;20024;-47
2022/05/26 08:26:30;;;;;;;7.07;1.33;;;;;;;37.61;16.23;99424.78;5092004;28;20024;-48
2022/05/26 08:28:57;;;;;;;5.65;0.90;;;;;;;37.44;16.34;99424.06;5092029;28;20028;-48
2022/05/26 08:31:23;;;;;;;2.75;0.82;;;;;;;37.39;16.29;99421.66;5090330;28;20048;-47
2022/05/26 08:33:52;;;;;;;3.30;0.70;;;;;;;37.10;16.40;99433.94;5091924;28;20110;-48
2022/05/26 08:36:21;;;;;;;5.05;0.88;;;;;;;37.20;16.33;99433.41;5091867;28;20024;-47
2022/05/26 08:38:48;;;;;;;5.70;0.80;;;;;;;37.27;16.28;99428.06;5091868;28;20046;-47
2022/05/26 08:41:23;;;;;;;10.38;1.00;;;;;;;37.56;15.75;99429.38;5091802;28;20038;-47
2022/05/26 08:44:11;;;;;;;5.53;1.10;;;;;;;38.09;15.50;99433.44;5091895;28;20052;-48
2022/05/26 08:46:54;;;;;;;6.22;1.27;;;;;;;38.31;14.98;99440.06;5091809;28;20024;-47
2022/05/26 08:49:41;;;;;;;8.45;0.77;;;;;;;38.39;15.56;99428.03;5091749;28;20033;-47
2022/05/26 08:52:30;;;;;;;1.98;0.85;;;;;;;38.07;15.78;99435.75;5090387;28;20489;-48
2022/05/26 08:55:25;;;;;;;3.70;1.00;;;;;;;37.53;15.88;99434.78;5091779;28;20497;-48
2022/05/26 08:58:00;;;;;;;7.25;1.33;;;;;;;37.78;15.71;99438.00;5065100;28;20043;-47
2022/05/26 09:00:26;;;;;;;4.68;1.05;;;;;;;37.88;15.37;99439.34;5091615;28;20036;-48
2022/05/26 09:03:00;;;;;;;6.70;1.17;;;;;;;37.67;15.52;99428.81;5090388;28;20470;-48
2022/05/26 09:05:33;;;;;;;3.13;0.80;;;;;;;37.09;15.80;99441.38;5091600;28;20107;-47
2022/05/26 09:13:47;;;;;;;5.78;1.27;;;;;;;37.25;15.48;99448.72;5091879;28;20101;-47
2022/05/26 09:16:13;;;;;;;8.00;1.38;;;;;;;37.23;15.68;99442.81;5091470;28;20027;-49
2022/05/26 09:18:40;;;;;;;3.90;0.70;;;;;;;37.50;14.99;99446.47;5091556;28;20012;-49
2022/05/26 09:21:24;;;;;;;5.55;0.70;;;;;;;37.50;15.10;99435.53;5091467;28;20036;-49
2022/05/26 09:23:51;;;;;;;5.85;0.85;;;;;;;37.57;15.14;99433.72;5091521;28;20020;-47
2022/05/26 09:26:22;;;;;;;3.00;1.00;;;;;;;37.67;15.08;99440.56;5091331;28;20024;-49
2022/05/26 09:28:51;;;;;;;3.40;0.70;;;;;;;37.38;15.68;99429.06;5091417;28;20128;-48
2022/05/26 09:31:43;;;;;;;5.65;1.10;;;;;;;37.10;14.96;99445.69;5090980;28;20064;-47
2022/05/26 09:34:26;;;;;;;4.68;0.90;;;;;;;36.55;15.46;99442.16;5093049;28;20039;-46
2022/05/26 09:37:01;;;;;;;3.53;0.90;;;;;;;36.35;15.69;99442.09;5095188;28;20050;-47
2022/05/26 09:39:34;;;;;;;7.68;0.80;;;;;;;36.66;15.72;99428.72;5095120;28;20032;-48
2022/05/26 09:42:02;;;;;;;5.15;1.02;;;;;;;36.69;16.26;99442.50;5095004;28;20103;-47
2022/05/26 09:44:43;;;;;;;6.78;1.08;;;;;;;36.68;16.14;99440.91;5094968;28;20032;-47
2022/05/26 09:47:44;;;;;;;6.32;1.33;;;;;;;36.80;15.85;99439.97;5094961;28;20026;-46
2022/05/26 09:51:02;;;;;;;7.57;1.05;;;;;;;36.79;16.19;99450.13;5094938;28;20168;-48
2022/05/26 09:53:35;;;;;;;4.50;1.13;;;;;;;37.20;15.39;99441.59;5078266;28;20046;-47
2022/05/26 09:56:01;;;;;;;3.55;0.95;;;;;;;37.08;15.29;99437.03;5094998;28;20098;-47
2022/05/26 09:58:39;;;;;;;2.50;0.70;;;;;;;36.25;16.24;99441.84;5094717;28;20028;-46
2022/05/26 10:01:23;;;;;;;4.30;0.57;;;;;;;36.15;16.53;99456.84;5094635;28;20024;-47
2022/05/26 10:03:48;;;;;;;;;;;;;;;36.38;16.67;99443.31;5094977;28;20039;-47
2022/05/26 10:06:40;;;;;;;6.05;0.50;;;;;;;36.44;16.31;99441.88;5094551;28;19908;-46
2022/05/26 10:09:27;;;;;;;7.93;0.70;;;;;;;36.37;16.05;99450.72;5094488;28;20097;-47
2022/05/26 10:12:10;;;;;;;3.00;0.82;;;;;;;36.36;16.50;99434.66;5094437;28;20024;-47
2022/05/26 10:14:43;;;;;;;6.65;1.42;;;;;;;36.55;16.16;99448.41;5094724;28;20490;-49
2022/05/26 10:17:36;;;;;;;3.25;0.70;;;;;;;36.24;15.65;99448.44;5094435;28;20032;-46
2022/05/26 10:20:08;;;;;;;3.92;0.80;;;;;;;36.00;16.41;99451.00;5094279;28;20067;-47
2022/05/26 10:22:55;;;;;;;2.67;0.73;;;;;;;36.16;16.30;99442.81;5094240;28;20036;-47
2022/05/26 10:25:23;;;;;;;6.38;0.80;;;;;;;36.41;16.53;99441.84;5094256;28;20025;-48
2022/05/26 10:28:20;;;;;;;2.60;0.60;;;;;;;36.45;16.19;99438.03;5092834;28;20024;-48
2022/05/26 10:31:17;;;;;;;2.83;0.60;;;;;;;36.22;15.80;99432.41;5093850;28;20090;-49
2022/05/26 10:33:59;;;;;;;4.10;0.65;;;;;;;35.70;16.01;99442.44;5094098;28;20055;-47
2022/05/26 10:36:57;;;;;;;3.40;1.58;;;;;;;35.27;16.34;99441.22;5094113;28;20513;-47
2022/05/26 10:39:23;;;;;;;4.22;0.77;;;;;;;35.47;16.15;99435.91;5094379;28;20456;-46
2022/05/26 10:41:56;;;;;;;5.43;0.70;;;;;;;35.74;16.43;99429.66;5093981;28;20028;-47
2022/05/26 10:44:32;;;;;;;1.35;0.60;;;;;;;35.91;16.18;99436.72;5093692;28;20039;-47
2022/05/26 10:47:29;;;;;;;4.28;0.90;;;;;;;36.49;16.24;99443.56;5093780;28;20056;-47
2022/05/26 10:50:06;;;;;;;2.03;0.50;;;;;;;36.57;15.95;99432.44;5093787;28;20036;-48
2022/05/26 10:52:47;;;;;;;3.58;0.68;;;;;;;36.39;16.32;99425.78;5093699;28;20032;-47
2022/05/26 10:55:33;;;;;;;4.40;0.80;;;;;;;36.00;16.18;99425.63;5093657;28;20027;-47
2022/05/26 10:58:06;;;;;;;2.13;0.70;;;;;;;35.89;16.62;99419.88;5093576;28;20409;-47
2022/05/26 11:00:33;;;;;;;5.23;0.83;;;;;;;35.99;16.28;99422.06;5092295;28;20375;-48
2022/05/26 11:03:10;;;;;;;3.28;0.77;;;;;;;35.88;16.56;99423.78;5093405;28;20020;-49
2022/05/26 11:05:50;;;;;;;2.35;0.65;;;;;;;35.94;16.63;99422.34;5093442;28;20046;-49
2022/05/26 11:08:22;;;;;;;4.65;1.45;;;;;;;35.76;16.68;99405.53;5093317;28;20086;-48
2022/05/26 11:10:54;;;;;;;5.15;0.93;;;;;;;35.34;17.02;99408.69;5093149;28;20020;-49
2022/05/26 11:13:41;;;;;;;3.85;0.80;;;;;;;35.14;17.13;99415.13;5093381;28;20028;-49
2022/05/26 11:19:16;;;;;;;4.57;0.73;;;;;;;34.79;17.86;99408.31;5093467;28;20513;-48
2022/05/26 11:21:42;;;;;;;4.50;0.68;;;;;;;35.06;17.87;99400.47;5091800;28;20028;-49
2022/05/26 11:24:09;;;;;;;1.75;0.68;;;;;;;35.51;17.24;99395.84;5093102;28;20031;-49
2022/05/26 11:26:41;;;;;;;2.17;0.63;;;;;;;36.37;16.62;99382.38;5093348;28;20443;-49
2022/05/26 11:29:20;;;;;;;2.95;0.85;;;;;;;36.84;16.27;99382.59;5091768;28;20077;-48
2022/05/26 11:37:35;;;;;;;;;;;;;;;35.50;17.16;99386.88;5093592;28;20047;-47
2022/05/26 11:40:13;;;;;;;4.28;0.82;;;;;;;34.88;17.76;99383.63;5092739;28;20455;-47
2022/05/26 11:42:50;;;;;;;2.00;0.70;;;;;;;34.60;18.04;99383.56;5092691;28;20077;-49
2022/05/26 11:45:35;;;;;;;2.97;0.80;;;;;;;34.29;17.82;99393.16;5092692;28;20016;-48
2022/05/26 11:48:26;;;;;;;3.30;0.60;;;;;;;34.00;18.41;99389.47;5091390;28;20123;-47
2022/05/26 11:51:03;;;;;;;1.95;0.52;;;;;;;34.11;18.01;99381.66;5092359;28;20385;-47
2022/05/26 11:53:48;;;;;;;2.80;0.80;;;;;;;34.13;18.36;99375.84;5092539;28;20050;-47
2022/05/26 11:56:27;;;;;;;4.88;0.60;;;;;;;34.18;18.05;99375.66;5091903;28;20079;-47
2022/05/26 11:59:26;;;;;;;3.72;1.10;;;;;;;34.23;18.47;99370.00;5092373;28;20492;-46
2022/05/26 12:02:07;;;;;;;3.90;0.85;;;;;;;34.03;18.63;99372.44;5092626;28;20027;-47
2022/05/26 12:04:37;;;;;;;4.00;0.60;;;;;;;33.98;18.87;99369.94;5092429;28;20160;-47
2022/05/26 12:07:31;;;;;;;4.05;0.90;;;;;;;33.88;18.78;99369.59;5092558;28;20180;-47
2022/05/26 12:09:59;;;;;;;4.28;0.73;;;;;;;33.91;18.89;99369.72;5089963;28;20115;-48
2022/05/26 12:12:24;;;;;;;6.28;0.70;;;;;;;33.90;19.30;99370.84;5092141;28;20031;-48
2022/05/26 12:14:51;;;;;;;4.28;0.70;;;;;;;34.09;19.04;99369.50;5092237;28;20028;-47
2022/05/26 12:17:30;;;;;;;6.50;3.40;;;;;;;34.68;18.43;99366.28;5092107;28;20020;-47
2022/05/26 12:20:24;;;;;;;2.88;0.60;;;;;;;34.69;18.58;99356.16;5092107;28;20024;-47
2022/05/26 12:22:50;;;;;;;4.82;0.65;;;;;;;34.20;18.51;99355.09;5092060;28;20055;-47
2022/05/26 12:25:23;;;;;;;1.23;0.65;;;;;;;33.75;18.90;99360.66;5090717;28;20051;-47
2022/05/26 12:27:53;;;;;;;3.03;0.90;;;;;;;33.63;19.52;99351.31;5092106;28;20390;-48
2022/05/26 12:30:31;;;;;;;6.07;0.85;;;;;;;33.96;19.06;99352.34;5091564;28;20509;-49
2022/05/26 12:33:01;;;;;;;3.65;0.98;;;;;;;34.04;19.02;99365.06;5091972;28;20051;-48
2022/05/26 12:35:30;;;;;;;2.92;0.80;;;;;;;33.52;19.19;99365.66;5092228;28;20019;-48
2022/05/26 12:38:23;;;;;;;5.05;1.27;;;;;;;33.14;20.07;99353.09;5091918;28;20024;-49